createdAt,value
2022-11-29T00:01:41.027Z,353.08
2022-11-29T00:04:09.566Z,378.33
2022-11-29T00:06:39.736Z,365.00
2022-11-29T00:09:11.603Z,381.95
2022-11-29T00:11:58.793Z,380.73
2022-11-29T00:14:28.827Z,394.95
2022-11-29T00:17:02.452Z,310.98
2022-11-29T00:19:31.513Z,280.80
2022-11-29T00:22:01.423Z,345.85
2022-11-29T00:24:31.552Z,333.58
2022-11-29T00:27:00.500Z,373.73
2022-11-29T00:29:30.193Z,369.15
2022-11-29T00:31:58.661Z,314.73
2022-11-29T00:34:27.187Z,397.58
2022-11-29T00:36:55.695Z,386.95
2022-11-29T00:39:25.880Z,303.25
2022-11-29T00:41:54.548Z,346.52
2022-11-29T00:44:23.045Z,321.02
2022-11-29T00:46:51.537Z,331.80
2022-11-29T00:49:20.065Z,346.15
2022-11-29T00:51:48.874Z,370.05
2022-11-29T00:54:18.781Z,404.08
2022-11-29T00:56:48.556Z,372.70
2022-11-29T00:59:16.986Z,361.35
2022-11-29T01:01:45.624Z,330.70
2022-11-29T01:04:13.982Z,339.98
2022-11-29T01:06:42.469Z,256.92
2022-11-29T01:09:10.998Z,368.55
2022-11-29T01:11:39.501Z,389.65
2022-11-29T01:14:09.379Z,320.80
2022-11-29T01:16:37.955Z,333.25
2022-11-29T01:19:07.341Z,354.10
2022-11-29T01:21:35.877Z,326.45
2022-11-29T01:24:04.429Z,341.60
2022-11-29T01:26:33.323Z,344.25
2022-11-29T01:29:01.842Z,375.70
2022-11-29T01:31:32.992Z,328.40
2022-11-29T01:34:03.466Z,328.38
2022-11-29T01:36:32.308Z,354.23
2022-11-29T01:39:01.304Z,338.23
2022-11-29T01:41:31.608Z,330.95
2022-11-29T01:44:03.551Z,381.40
2022-11-29T01:46:34.954Z,375.63
2022-11-29T01:49:07.273Z,374.27
2022-11-29T01:51:36.865Z,354.83
2022-11-29T01:54:07.330Z,330.88
2022-11-29T01:56:36.661Z,338.38
2022-11-29T01:59:07.728Z,312.23
2022-11-29T02:01:37.932Z,344.23
2022-11-29T02:04:07.798Z,347.33
2022-11-29T02:06:36.751Z,330.42
2022-11-29T02:09:05.833Z,355.08
2022-11-29T02:12:00.448Z,348.85
2022-11-29T02:14:46.926Z,300.10
2022-11-29T02:17:22.367Z,343.40
2022-11-29T02:20:33.042Z,312.98
2022-11-29T02:23:10.016Z,347.35
2022-11-29T02:25:52.899Z,374.38
2022-11-29T02:28:46.883Z,368.80
2022-11-29T02:31:49.969Z,343.63
2022-11-29T02:34:44.988Z,307.20
2022-11-29T02:37:23.627Z,370.05
2022-11-29T02:40:07.647Z,334.55
2022-11-29T02:43:02.165Z,278.63
2022-11-29T02:45:44.343Z,351.17
2022-11-29T02:48:45.477Z,346.85
2022-11-29T02:51:18.940Z,290.98
2022-11-29T02:53:52.891Z,350.30
2022-11-29T02:56:26.525Z,372.35
2022-11-29T02:59:02.432Z,365.48
2022-11-29T03:01:34.892Z,366.90
2022-11-29T03:04:08.645Z,316.10
2022-11-29T03:06:44.082Z,313.30
2022-11-29T03:09:20.504Z,355.77
2022-11-29T03:11:51.920Z,353.95
2022-11-29T03:14:25.418Z,322.95
2022-11-29T03:17:01.657Z,321.17
2022-11-29T03:19:59.777Z,331.70
2022-11-29T03:22:35.555Z,340.25
2022-11-29T03:25:10.402Z,364.38
2022-11-29T03:27:42.580Z,289.17
2022-11-29T03:30:13.415Z,301.92
2022-11-29T03:32:49.727Z,358.77
2022-11-29T03:35:22.270Z,325.70
2022-11-29T03:37:56.492Z,330.13
2022-11-29T03:40:29.206Z,336.63
2022-11-29T03:43:02.075Z,368.30
2022-11-29T03:45:33.969Z,344.05
2022-11-29T03:48:06.488Z,379.30
2022-11-29T03:50:37.716Z,358.38
2022-11-29T03:53:16.243Z,298.33
2022-11-29T03:55:54.253Z,310.42
2022-11-29T03:58:38.114Z,291.17
2022-11-29T04:01:38.500Z,290.17
2022-11-29T04:04:42.990Z,318.77
2022-11-29T04:07:29.118Z,289.97
2022-11-29T04:10:19.055Z,291.65
2022-11-29T04:13:08.155Z,318.40
2022-11-29T04:16:12.130Z,355.27
2022-11-29T04:19:07.578Z,338.38
2022-11-29T04:24:44.530Z,353.23
2022-11-29T04:27:41.959Z,301.13
2022-11-29T04:30:22.321Z,371.13
2022-11-29T04:33:24.382Z,333.65
2022-11-29T04:36:08.187Z,421.85
2022-11-29T04:39:00.146Z,355.95
2022-11-29T04:41:44.086Z,305.13
2022-11-29T04:44:41.843Z,365.58
2022-11-29T04:47:27.506Z,337.30
2022-11-29T04:50:16.346Z,367.90
2022-11-29T04:53:09.884Z,370.70
2022-11-29T04:55:45.637Z,368.00
2022-11-29T04:58:20.632Z,366.00
2022-11-29T05:00:57.572Z,303.30
2022-11-29T05:03:38.094Z,289.40
2022-11-29T05:06:17.226Z,329.80
2022-11-29T05:08:51.563Z,346.13
2022-11-29T05:11:27.065Z,357.05
2022-11-29T05:14:00.529Z,329.65
2022-11-29T05:16:46.069Z,349.55
2022-11-29T05:19:44.655Z,279.00
2022-11-29T05:22:24.667Z,368.13
2022-11-29T05:25:04.558Z,308.70
2022-11-29T05:27:42.463Z,299.52
2022-11-29T05:30:14.516Z,356.85
2022-11-29T05:32:55.096Z,391.15
2022-11-29T05:35:36.506Z,334.00
2022-11-29T05:38:13.244Z,369.17
2022-11-29T05:40:47.734Z,286.95
2022-11-29T05:43:39.676Z,357.05
2022-11-29T05:46:13.104Z,388.00
2022-11-29T05:48:49.617Z,334.67
2022-11-29T05:51:23.281Z,415.55
2022-11-29T05:54:00.617Z,373.40
2022-11-29T05:56:38.248Z,372.17
2022-11-29T05:59:10.536Z,319.30
2022-11-29T06:01:44.886Z,335.65
2022-11-29T06:04:19.110Z,376.35
2022-11-29T06:06:50.904Z,368.15
2022-11-29T06:09:25.085Z,352.35
2022-11-29T06:11:57.733Z,456.05
2022-11-29T06:14:43.495Z,364.38
2022-11-29T06:17:37.300Z,369.35
2022-11-29T06:20:27.715Z,382.77
2022-11-29T06:23:12.676Z,254.95
2022-11-29T06:28:27.880Z,367.43
2022-11-29T06:31:02.118Z,410.40
2022-11-29T06:33:36.775Z,337.83
2022-11-29T06:38:40.183Z,415.30
2022-11-29T06:41:10.351Z,312.58
2022-11-29T06:43:39.455Z,375.15
2022-11-29T06:46:18.364Z,349.85
2022-11-29T06:48:57.837Z,411.50
2022-11-29T06:51:35.279Z,546.95
2022-11-29T06:54:10.717Z,429.48
2022-11-29T06:56:45.196Z,397.80
2022-11-29T06:59:25.442Z,377.17
2022-11-29T07:01:57.845Z,476.23
2022-11-29T07:04:46.332Z,265.90
2022-11-29T07:07:19.550Z,504.58
2022-11-29T07:09:50.599Z,303.95
2022-11-29T07:12:20.811Z,350.63
2022-11-29T07:14:50.485Z,372.35
2022-11-29T07:17:25.563Z,367.23
2022-11-29T07:20:03.001Z,410.95
2022-11-29T07:22:42.701Z,369.50
2022-11-29T07:25:21.151Z,335.17
2022-11-29T07:27:54.554Z,316.60
2022-11-29T07:30:25.920Z,324.88
2022-11-29T07:33:02.753Z,376.92
2022-11-29T07:35:40.058Z,351.10
2022-11-29T07:38:16.082Z,308.75
2022-11-29T07:40:51.314Z,301.10
2022-11-29T07:43:28.019Z,324.60
2022-11-29T07:45:57.051Z,338.02
2022-11-29T07:48:26.881Z,306.92
2022-11-29T07:50:55.511Z,325.67
2022-11-29T07:53:25.961Z,318.95
2022-11-29T07:55:54.609Z,331.05
2022-11-29T07:58:23.072Z,528.90
2022-11-29T08:00:51.507Z,368.30
2022-11-29T08:03:19.959Z,299.30
2022-11-29T08:05:49.379Z,371.42
2022-11-29T08:08:17.857Z,339.35
2022-11-29T08:10:47.859Z,294.42
2022-11-29T08:13:16.481Z,348.67
2022-11-29T08:15:48.939Z,300.63
2022-11-29T08:18:17.656Z,359.45
2022-11-29T08:20:46.460Z,503.10
2022-11-29T08:23:16.485Z,421.27
2022-11-29T08:25:46.508Z,366.88
2022-11-29T08:28:15.158Z,298.40
2022-11-29T08:30:43.556Z,282.05
2022-11-29T08:33:12.082Z,350.05
2022-11-29T08:35:42.125Z,335.27
2022-11-29T08:38:10.716Z,442.17
2022-11-29T08:40:39.221Z,358.63
2022-11-29T08:43:09.157Z,331.23
2022-11-29T08:45:37.621Z,347.05
2022-11-29T08:48:06.948Z,321.85
2022-11-29T08:50:35.431Z,317.23
2022-11-29T08:53:21.501Z,287.17
2022-11-29T08:55:50.612Z,406.45
2022-11-29T08:58:21.472Z,327.45
2022-11-29T09:00:50.151Z,304.95
2022-11-29T09:03:36.319Z,315.73
2022-11-29T09:06:12.039Z,341.88
2022-11-29T09:08:43.568Z,383.00
2022-11-29T09:11:13.564Z,329.00
2022-11-29T09:13:44.717Z,260.27
2022-11-29T09:16:15.221Z,341.02
2022-11-29T09:18:50.015Z,324.83
2022-11-29T09:21:20.316Z,285.27
2022-11-29T09:23:48.862Z,299.88
2022-11-29T09:26:19.533Z,275.95
2022-11-29T09:28:49.982Z,286.65
2022-11-29T09:31:20.204Z,345.85
2022-11-29T09:33:49.018Z,298.50
2022-11-29T09:36:17.936Z,321.00
2022-11-29T09:38:46.633Z,263.63
2022-11-29T09:41:33.452Z,293.05
2022-11-29T09:44:09.241Z,329.02
2022-11-29T09:46:47.279Z,331.02
2022-11-29T09:49:43.693Z,339.77
2022-11-29T09:52:17.939Z,398.77
2022-11-29T09:54:52.323Z,371.63
2022-11-29T09:57:21.957Z,287.75
2022-11-29T09:59:53.121Z,337.48
2022-11-29T10:02:24.728Z,358.88
2022-11-29T10:04:57.421Z,359.63
2022-11-29T10:07:29.374Z,417.65
2022-11-29T10:10:05.176Z,343.40
2022-11-29T10:12:37.190Z,386.50
2022-11-29T10:15:14.048Z,354.17
2022-11-29T10:17:46.261Z,416.88
2022-11-29T10:20:20.347Z,328.80
2022-11-29T10:22:54.535Z,339.05
2022-11-29T10:25:26.723Z,348.10
2022-11-29T10:27:55.761Z,353.55
2022-11-29T10:30:25.853Z,303.90
2022-11-29T10:32:58.433Z,322.75
2022-11-29T10:35:27.013Z,375.27
2022-11-29T10:38:29.072Z,293.42
2022-11-29T10:40:50.916Z,322.20
2022-11-29T10:43:19.473Z,425.73
2022-11-29T10:45:53.480Z,291.52
2022-11-29T10:48:23.728Z,374.95
2022-11-29T10:50:53.654Z,317.65
2022-11-29T10:53:25.770Z,301.98
2022-11-29T10:56:00.193Z,326.05
2022-11-29T10:58:30.282Z,285.52
2022-11-29T11:01:01.876Z,294.08
2022-11-29T11:03:35.120Z,400.02
2022-11-29T11:06:17.348Z,334.02
2022-11-29T11:08:47.817Z,313.15
2022-11-29T11:11:17.004Z,287.63
2022-11-29T11:13:45.733Z,468.10
2022-11-29T11:16:20.836Z,287.95
2022-11-29T11:18:49.793Z,313.17
2022-11-29T11:21:20.496Z,359.10
2022-11-29T11:23:55.317Z,346.08
2022-11-29T11:26:24.508Z,336.95
2022-11-29T11:28:57.028Z,452.38
2022-11-29T11:31:34.245Z,326.35
2022-11-29T11:34:36.022Z,341.73
2022-11-29T11:37:23.108Z,310.75
2022-11-29T11:39:53.254Z,388.20
2022-11-29T11:42:40.592Z,375.73
2022-11-29T11:45:28.402Z,334.52
2022-11-29T11:48:00.534Z,305.08
2022-11-29T11:50:31.745Z,329.55
2022-11-29T11:53:01.630Z,433.75
2022-11-29T11:55:34.882Z,388.77
2022-11-29T11:58:10.132Z,231.73
2022-11-29T12:03:39.863Z,381.55
2022-11-29T12:06:25.920Z,337.50
2022-11-29T12:08:57.388Z,347.13
2022-11-29T12:11:26.941Z,415.70
2022-11-29T12:13:57.816Z,373.60
2022-11-29T12:16:31.491Z,379.75
2022-11-29T12:19:06.508Z,303.03
2022-11-29T12:21:38.725Z,338.08
2022-11-29T12:24:17.808Z,319.35
2022-11-29T12:26:57.173Z,280.08
2022-11-29T12:29:30.120Z,341.73
2022-11-29T12:32:08.842Z,378.25
2022-11-29T12:50:55.233Z,285.90
2022-11-29T12:53:37.634Z,330.30
2022-11-29T12:56:13.851Z,283.00
2022-11-29T12:58:53.115Z,373.00
2022-11-29T13:01:26.984Z,333.08
2022-11-29T13:04:10.601Z,321.73
2022-11-29T13:06:43.753Z,344.52
2022-11-29T13:09:53.931Z,313.67
2022-11-29T13:12:25.514Z,389.38
2022-11-29T13:14:57.574Z,294.20
2022-11-29T13:17:32.362Z,406.67
2022-11-29T13:22:36.621Z,368.98
2022-11-29T13:27:38.217Z,339.45
2022-11-29T13:30:07.931Z,320.98
2022-11-29T13:32:37.680Z,294.52
2022-11-29T13:35:09.869Z,310.27
2022-11-29T13:37:43.438Z,429.42
2022-11-29T13:40:24.753Z,387.25
2022-11-29T13:42:59.342Z,329.17
2022-11-29T13:47:58.966Z,345.10
2022-11-29T13:50:43.800Z,435.55
2022-11-29T13:53:17.939Z,414.77
2022-11-29T13:55:48.582Z,293.45
2022-11-29T13:58:37.616Z,389.08
2022-11-29T14:01:09.452Z,544.17
2022-11-29T14:03:48.139Z,341.08
2022-11-29T14:06:21.193Z,323.45
2022-11-29T14:09:26.241Z,332.52
2022-11-29T14:12:04.470Z,397.33
2022-11-29T14:14:37.366Z,416.10
2022-11-29T14:17:07.091Z,426.10
2022-11-29T14:19:36.564Z,325.80
2022-11-29T14:22:30.406Z,428.75
2022-11-29T14:25:49.102Z,523.60
2022-11-29T14:28:30.681Z,301.50
2022-11-29T14:31:02.005Z,369.60
2022-11-29T14:33:39.275Z,296.98
2022-11-29T14:36:32.232Z,338.55
2022-11-29T14:39:14.619Z,514.13
2022-11-29T14:41:55.410Z,357.65
2022-11-29T14:44:26.010Z,347.35
2022-11-29T14:47:02.712Z,582.55
2022-11-29T14:49:32.672Z,324.83
2022-11-29T14:52:10.621Z,326.67
2022-11-29T14:55:00.370Z,349.23
2022-11-29T14:58:06.836Z,334.30
2022-11-29T15:00:42.693Z,369.92
2022-11-29T15:03:13.858Z,570.05
2022-11-29T15:05:45.231Z,336.15
2022-11-29T15:08:18.964Z,362.80
2022-11-29T15:10:50.814Z,574.57
2022-11-29T15:13:29.001Z,338.80
2022-11-29T15:16:31.283Z,344.15
2022-11-29T15:19:23.418Z,355.40
2022-11-29T15:21:57.406Z,448.75
2022-11-29T15:24:28.738Z,362.13
2022-11-29T15:26:58.658Z,420.00
2022-11-29T15:29:29.971Z,373.90
2022-11-29T15:31:59.785Z,283.73
2022-11-29T15:34:34.283Z,301.42
2022-11-29T15:37:06.066Z,330.63
2022-11-29T15:39:36.056Z,340.02
2022-11-29T15:42:08.358Z,347.40
2022-11-29T15:44:38.138Z,350.77
2022-11-29T15:47:16.880Z,360.85
2022-11-29T15:49:45.319Z,292.13
2022-11-29T15:52:20.564Z,370.67
2022-11-29T15:54:52.167Z,284.42
2022-11-29T15:57:24.704Z,272.15
2022-11-29T15:59:56.630Z,284.92
2022-11-29T16:02:27.731Z,281.58
2022-11-29T16:04:58.613Z,270.77
2022-11-29T16:07:32.122Z,350.13
2022-11-29T16:10:02.945Z,414.97
2022-11-29T16:12:31.893Z,366.55
2022-11-29T16:15:03.748Z,377.10
2022-11-29T16:17:35.261Z,415.10
2022-11-29T16:20:24.336Z,423.40
2022-11-29T16:23:12.941Z,509.70
2022-11-29T16:25:54.157Z,424.77
2022-11-29T16:28:22.631Z,412.77
2022-11-29T16:30:52.478Z,356.50
2022-11-29T16:33:23.765Z,408.33
2022-11-29T16:35:52.489Z,566.88
2022-11-29T16:38:23.127Z,424.38
2022-11-29T16:41:22.051Z,434.98
2022-11-29T16:47:52.573Z,490.58
2022-11-29T16:50:22.512Z,461.65
2022-11-29T16:52:56.259Z,430.90
2022-11-29T16:55:25.377Z,500.75
2022-11-29T16:57:53.912Z,456.15
2022-11-29T17:00:33.389Z,450.73
2022-11-29T17:03:03.413Z,572.58
2022-11-29T17:05:32.048Z,496.08
2022-11-29T17:08:02.228Z,545.78
2022-11-29T17:10:40.884Z,494.85
2022-11-29T17:13:11.435Z,576.53
2022-11-29T17:15:40.060Z,514.03
2022-11-29T17:18:10.226Z,601.10
2022-11-29T17:20:38.926Z,526.40
2022-11-29T17:23:07.371Z,514.28
2022-11-29T17:25:36.031Z,510.23
2022-11-29T17:28:04.678Z,512.75
2022-11-29T17:30:33.033Z,630.15
2022-11-29T17:33:02.854Z,570.72
2022-11-29T17:35:32.654Z,526.42
2022-11-29T17:38:01.285Z,513.67
2022-11-29T17:40:32.568Z,541.35
2022-11-29T17:43:01.070Z,525.47
2022-11-29T17:45:29.471Z,527.67
2022-11-29T17:48:00.020Z,547.55
2022-11-29T17:50:28.578Z,535.35
2022-11-29T17:52:58.414Z,515.17
2022-11-29T17:55:29.554Z,562.22
2022-11-29T17:58:01.483Z,520.10
2022-11-29T18:00:30.200Z,520.05
2022-11-29T18:02:58.719Z,523.58
2022-11-29T18:05:34.179Z,517.47
2022-11-29T18:08:06.107Z,519.95
2022-11-29T18:10:36.910Z,590.42
2022-11-29T18:18:24.480Z,508.67
2022-11-29T18:20:53.043Z,506.30
2022-11-29T18:23:22.979Z,714.67
2022-11-29T18:26:00.103Z,540.17
2022-11-29T18:28:34.254Z,559.20
2022-11-29T18:31:12.632Z,498.33
2022-11-29T18:33:46.386Z,504.13
2022-11-29T18:36:19.463Z,499.43
2022-11-29T18:38:50.141Z,483.92
2022-11-29T18:41:20.934Z,494.95
2022-11-29T18:43:50.440Z,504.85
2022-11-29T18:46:21.230Z,499.08
2022-11-29T18:48:50.919Z,538.38
2022-11-29T18:51:21.365Z,486.80
2022-11-29T18:53:51.290Z,493.02
2022-11-29T18:56:22.259Z,516.70
2022-11-29T18:58:58.415Z,504.00
2022-11-29T19:01:29.490Z,519.30
2022-11-29T19:04:10.626Z,534.20
2022-11-29T19:06:42.814Z,508.17
2022-11-29T19:10:04.890Z,530.65
2022-11-29T19:12:34.844Z,511.92
2022-11-29T19:18:06.204Z,458.73
2022-11-29T19:23:53.313Z,536.00
2022-11-29T19:26:35.702Z,475.27
2022-11-29T19:29:28.771Z,454.50
2022-11-29T19:48:03.619Z,515.42
2022-11-29T19:50:32.222Z,498.25
2022-11-29T19:53:00.624Z,639.30
2022-11-29T19:55:29.121Z,478.33
2022-11-29T19:57:57.631Z,536.70
2022-11-29T20:00:26.315Z,529.97
2022-11-29T20:02:54.739Z,480.63
2022-11-29T20:05:24.669Z,476.75
2022-11-29T20:07:53.217Z,513.47
2022-11-29T20:10:21.710Z,565.22
2022-11-29T20:12:50.134Z,485.42
2022-11-29T20:15:18.605Z,536.55
2022-11-29T20:17:48.386Z,541.08
2022-11-29T20:20:17.055Z,491.95
2022-11-29T20:22:46.834Z,429.65
2022-11-29T20:25:15.512Z,452.42
2022-11-29T20:27:43.892Z,433.08
2022-11-29T20:30:13.692Z,447.38
2022-11-29T20:32:42.401Z,497.85
2022-11-29T20:35:12.209Z,509.90
2022-11-29T20:37:54.552Z,428.95
2022-11-29T20:40:26.196Z,429.73
2022-11-29T20:43:02.497Z,507.15
2022-11-29T20:45:31.452Z,456.27
2022-11-29T20:48:03.764Z,485.92
2022-11-29T20:50:33.264Z,475.52
2022-11-29T20:53:12.662Z,492.08
2022-11-29T20:55:47.506Z,459.13
2022-11-29T20:58:16.917Z,457.75
2022-11-29T21:00:45.377Z,485.52
2022-11-29T21:03:15.099Z,568.58
2022-11-29T21:05:43.736Z,469.83
2022-11-29T21:08:13.930Z,508.20
2022-11-29T21:10:42.440Z,469.50
2022-11-29T21:13:12.665Z,532.53
2022-11-29T21:15:41.819Z,532.95
2022-11-29T21:18:18.168Z,529.65
2022-11-29T21:20:49.754Z,522.35
2022-11-29T21:23:24.105Z,489.25
2022-11-29T21:25:58.095Z,429.00
2022-11-29T21:28:30.124Z,574.03
2022-11-29T21:30:59.214Z,422.00
2022-11-29T21:33:28.086Z,444.20
2022-11-29T21:35:58.974Z,506.58
2022-11-29T21:38:28.812Z,502.23
2022-11-29T21:40:57.217Z,435.23
2022-11-29T21:43:57.899Z,433.58
2022-11-29T21:46:14.248Z,447.48
2022-11-29T21:48:42.680Z,434.77
2022-11-29T21:51:12.217Z,417.83
2022-11-29T21:53:42.266Z,437.30
2022-11-29T21:56:12.122Z,402.85
2022-11-29T21:58:41.128Z,446.08
2022-11-29T22:01:11.391Z,474.40
